createdAt,value
2018-09-21T00:01:56.304Z,21.60
2018-09-21T00:04:26.909Z,21.60
2018-09-21T00:06:58.276Z,21.75
2018-09-21T00:09:29.366Z,21.80
2018-09-21T00:11:59.647Z,21.88
2018-09-21T00:14:31.594Z,21.94
2018-09-21T00:17:01.957Z,21.93
2018-09-21T00:19:32.328Z,21.96
2018-09-21T00:22:02.250Z,21.91
2018-09-21T00:24:33.326Z,21.96
2018-09-21T00:27:03.787Z,21.91
2018-09-21T00:29:34.035Z,21.94
2018-09-21T00:32:04.398Z,22.02
2018-09-21T00:34:34.626Z,22.02
2018-09-21T00:37:04.720Z,22.01
2018-09-21T00:39:35.388Z,21.95
2018-09-21T00:42:07.005Z,21.95
2018-09-21T00:44:37.151Z,21.88
2018-09-21T00:47:08.437Z,21.83
2018-09-21T00:49:38.577Z,21.81
2018-09-21T00:52:08.804Z,21.79
2018-09-21T00:54:39.364Z,21.80
2018-09-21T00:57:11.448Z,21.84
2018-09-21T00:59:41.727Z,21.83
2018-09-21T01:02:13.118Z,21.88
2018-09-21T01:04:44.739Z,21.86
2018-09-21T01:07:15.637Z,21.84
2018-09-21T01:09:46.938Z,21.89
2018-09-21T01:12:17.742Z,21.79
2018-09-21T01:14:48.028Z,21.63
2018-09-21T01:17:19.215Z,21.52
2018-09-21T01:19:49.933Z,21.54
2018-09-21T01:22:20.221Z,21.38
2018-09-21T01:24:51.459Z,21.34
2018-09-21T01:27:24.402Z,21.25
2018-09-21T01:29:55.119Z,21.19
2018-09-21T01:32:25.619Z,20.99
2018-09-21T01:34:56.179Z,20.93
2018-09-21T01:37:26.816Z,20.83
2018-09-21T01:39:57.913Z,20.72
2018-09-21T01:42:28.609Z,20.61
2018-09-21T01:44:58.616Z,20.66
2018-09-21T01:47:29.206Z,20.84
2018-09-21T01:50:00.431Z,21.04
2018-09-21T01:52:30.792Z,21.23
2018-09-21T01:55:02.012Z,21.41
2018-09-21T01:57:32.678Z,21.55
2018-09-21T02:00:04.137Z,21.76
2018-09-21T02:02:34.350Z,21.90
2018-09-21T02:05:06.916Z,22.11
2018-09-21T02:07:36.936Z,22.19
2018-09-21T02:10:10.907Z,22.36
2018-09-21T02:12:41.706Z,22.27
2018-09-21T02:15:14.145Z,22.49
2018-09-21T02:17:44.243Z,22.56
2018-09-21T02:20:14.342Z,22.55
2018-09-21T02:24:51.813Z,22.61
2018-09-21T02:27:23.783Z,22.60
2018-09-21T02:29:55.472Z,22.63
2018-09-21T02:32:27.009Z,22.53
2018-09-21T02:34:58.560Z,22.68
2018-09-21T02:37:30.963Z,22.71
2018-09-21T02:40:01.008Z,22.66
2018-09-21T02:42:31.364Z,22.71
2018-09-21T02:45:02.384Z,22.68
2018-09-21T02:47:34.395Z,22.78
2018-09-21T02:50:05.743Z,22.81
2018-09-21T02:52:36.198Z,22.77
2018-09-21T02:55:07.047Z,22.74
2018-09-21T02:57:37.236Z,22.75
2018-09-21T03:00:08.690Z,22.76
2018-09-21T03:02:39.016Z,22.63
2018-09-21T03:05:09.242Z,22.68
2018-09-21T03:07:39.127Z,22.67
2018-09-21T03:10:09.604Z,22.64
2018-09-21T03:12:40.393Z,22.51
2018-09-21T03:15:12.410Z,22.54
2018-09-21T03:17:42.976Z,22.59
2018-09-21T03:20:13.118Z,22.58
2018-09-21T03:22:43.477Z,22.56
2018-09-21T03:25:15.931Z,22.50
2018-09-21T03:27:46.904Z,22.39
2018-09-21T03:30:16.993Z,22.47
2018-09-21T03:32:47.502Z,22.43
2018-09-21T03:35:17.676Z,22.34
2018-09-21T03:37:47.882Z,22.40
2018-09-21T03:40:18.198Z,22.44
2018-09-21T03:42:47.985Z,22.46
2018-09-21T03:45:19.546Z,22.44
2018-09-21T03:47:50.507Z,22.37
2018-09-21T03:50:21.442Z,22.24
2018-09-21T03:52:51.918Z,22.34
2018-09-21T03:55:24.205Z,22.34
2018-09-21T03:57:54.735Z,22.42
2018-09-21T04:00:24.946Z,22.40
2018-09-21T04:02:55.944Z,22.43
2018-09-21T04:05:25.943Z,22.42
2018-09-21T04:07:56.433Z,22.42
2018-09-21T04:10:26.462Z,22.44
2018-09-21T04:12:57.074Z,22.42
2018-09-21T04:15:27.570Z,22.34
2018-09-21T04:17:58.272Z,22.34
2018-09-21T04:20:28.563Z,22.30
2018-09-21T04:23:02.944Z,22.28
2018-09-21T04:25:33.522Z,22.20
2018-09-21T04:28:03.909Z,22.26
2018-09-21T04:30:33.784Z,22.18
2018-09-21T04:33:04.975Z,22.14
2018-09-21T04:35:36.976Z,22.09
2018-09-21T04:38:07.740Z,22.05
2018-09-21T04:40:38.154Z,22.07
2018-09-21T04:43:09.057Z,22.11
2018-09-21T04:45:39.994Z,22.03
2018-09-21T04:48:10.488Z,21.98
2018-09-21T04:50:41.237Z,21.89
2018-09-21T04:53:13.916Z,21.75
2018-09-21T04:55:48.924Z,21.74
2018-09-21T04:58:20.730Z,21.79
2018-09-21T05:00:52.123Z,21.85
2018-09-21T05:03:22.333Z,21.84
2018-09-21T05:05:54.681Z,21.90
2018-09-21T05:08:26.001Z,21.88
2018-09-21T05:10:58.633Z,21.94
2018-09-21T05:13:32.011Z,22.04
2018-09-21T05:16:02.281Z,21.99
2018-09-21T05:18:32.641Z,21.98
2018-09-21T05:21:03.380Z,22.09
2018-09-21T05:23:37.232Z,22.06
2018-09-21T05:26:07.434Z,22.04
2018-09-21T05:28:39.016Z,22.05
2018-09-21T05:31:10.916Z,22.17
2018-09-21T05:33:45.512Z,22.19
2018-09-21T05:36:15.662Z,22.18
2018-09-21T05:38:47.921Z,22.22
2018-09-21T05:41:19.828Z,22.24
2018-09-21T05:43:50.154Z,22.14
2018-09-21T05:46:21.476Z,22.17
2018-09-21T05:48:51.841Z,22.18
2018-09-21T05:51:22.580Z,22.20
2018-09-21T05:53:53.982Z,22.18
2018-09-21T05:56:24.404Z,22.21
2018-09-21T05:58:55.145Z,22.26
2018-09-21T06:01:25.885Z,22.22
2018-09-21T06:03:56.758Z,22.20
2018-09-21T06:06:26.614Z,22.22
2018-09-21T06:08:57.763Z,22.25
2018-09-21T06:11:32.187Z,22.24
2018-09-21T06:14:03.409Z,22.16
2018-09-21T06:16:36.514Z,22.45
2018-09-21T06:19:08.533Z,22.49
2018-09-21T06:21:41.201Z,22.62
2018-09-21T06:24:12.315Z,22.79
2018-09-21T06:26:43.132Z,22.79
2018-09-21T06:29:14.377Z,22.88
2018-09-21T06:31:49.539Z,23.00
2018-09-21T06:34:24.429Z,23.01
2018-09-21T06:36:56.325Z,23.07
2018-09-21T06:39:30.376Z,23.23
2018-09-21T06:42:07.295Z,23.15
2018-09-21T06:44:40.436Z,23.38
2018-09-21T06:47:11.331Z,23.35
2018-09-21T06:49:42.880Z,23.38
2018-09-21T06:52:15.845Z,23.55
2018-09-21T06:57:29.026Z,23.84
2018-09-21T06:59:59.297Z,24.01
2018-09-21T07:02:29.477Z,24.16
2018-09-21T07:05:04.878Z,24.22
2018-09-21T07:07:35.684Z,24.50
2018-09-21T07:10:07.640Z,24.47
2018-09-21T07:12:37.953Z,24.55
2018-09-21T07:15:09.800Z,24.46
2018-09-21T07:17:42.354Z,24.43
2018-09-21T07:20:12.558Z,24.33
2018-09-21T07:22:42.611Z,24.00
2018-09-21T07:25:13.205Z,24.22
2018-09-21T07:27:44.683Z,24.25
2018-09-21T07:30:15.474Z,24.20
2018-09-21T07:32:45.959Z,24.30
2018-09-21T07:35:16.962Z,24.16
2018-09-21T07:37:48.145Z,24.03
2018-09-21T07:40:20.908Z,23.95
2018-09-21T07:42:51.993Z,24.28
2018-09-21T07:45:22.823Z,24.45
2018-09-21T07:48:02.929Z,24.68
2018-09-21T07:50:37.719Z,24.93
2018-09-21T07:53:09.571Z,25.12
2018-09-21T07:55:41.874Z,25.27
2018-09-21T07:58:18.199Z,25.37
2018-09-21T08:00:53.929Z,25.41
2018-09-21T08:03:25.307Z,25.61
2018-09-21T08:05:56.403Z,25.87
2018-09-21T08:08:27.483Z,25.87
2018-09-21T08:10:58.092Z,26.14
2018-09-21T08:13:28.034Z,26.26
2018-09-21T08:15:58.226Z,26.48
2018-09-21T08:18:28.841Z,26.66
2018-09-21T08:20:58.962Z,26.78
2018-09-21T08:23:29.005Z,26.76
2018-09-21T08:26:00.189Z,26.84
2018-09-21T08:28:30.085Z,27.18
2018-09-21T08:31:00.288Z,27.32
2018-09-21T08:33:30.622Z,27.39
2018-09-21T08:36:01.246Z,27.45
2018-09-21T08:38:31.288Z,27.29
2018-09-21T08:41:02.038Z,27.19
2018-09-21T08:43:32.142Z,27.21
2018-09-21T08:46:02.574Z,27.42
2018-09-21T08:48:32.843Z,27.53
2018-09-21T08:51:03.321Z,27.63
2018-09-21T08:53:33.411Z,27.72
2018-09-21T08:56:04.532Z,27.79
2018-09-21T08:58:34.554Z,27.79
2018-09-21T09:01:05.259Z,27.84
2018-09-21T09:03:35.583Z,28.01
2018-09-21T09:06:05.558Z,28.07
2018-09-21T09:08:35.920Z,27.93
2018-09-21T09:11:06.637Z,27.83
2018-09-21T09:13:36.889Z,27.97
2018-09-21T09:16:07.154Z,27.94
2018-09-21T09:18:38.712Z,27.75
2018-09-21T09:21:08.787Z,27.88
2018-09-21T09:23:38.958Z,27.97
2018-09-21T09:27:14.266Z,27.89
2018-09-21T09:29:44.792Z,27.71
2018-09-21T09:32:14.788Z,27.73
2018-09-21T09:34:44.894Z,27.72
2018-09-21T09:37:14.978Z,27.80
2018-09-21T09:39:45.749Z,27.68
2018-09-21T09:42:16.045Z,27.76
2018-09-21T09:44:46.120Z,27.76
2018-09-21T09:47:17.235Z,27.76
2018-09-21T09:49:47.836Z,27.75
2018-09-21T09:52:18.436Z,27.70
2018-09-21T09:54:49.781Z,27.72
2018-09-21T09:57:21.276Z,27.73
2018-09-21T09:59:52.057Z,27.79
2018-09-21T10:02:22.327Z,27.84
2018-09-21T10:04:53.287Z,28.06
2018-09-21T10:07:24.003Z,27.98
2018-09-21T10:09:56.010Z,28.04
2018-09-21T10:12:32.453Z,28.14
2018-09-21T10:15:09.589Z,27.98
2018-09-21T10:17:40.743Z,27.94
2018-09-21T10:20:14.345Z,27.78
2018-09-21T10:22:45.234Z,27.91
2018-09-21T10:25:15.358Z,28.03
2018-09-21T10:27:48.289Z,28.17
2018-09-21T10:30:18.735Z,28.28
2018-09-21T10:32:48.827Z,28.30
2018-09-21T10:35:20.554Z,28.31
2018-09-21T10:37:50.748Z,28.25
2018-09-21T10:40:24.935Z,28.12
2018-09-21T10:42:55.859Z,28.14
2018-09-21T10:45:26.421Z,28.02
2018-09-21T10:47:59.509Z,27.94
2018-09-21T10:50:30.680Z,27.93
2018-09-21T10:53:02.638Z,27.92
2018-09-21T10:55:33.185Z,27.64
2018-09-21T10:58:03.471Z,27.54
2018-09-21T11:00:34.123Z,27.57
2018-09-21T11:03:05.846Z,27.57
2018-09-21T11:05:36.959Z,27.72
2018-09-21T11:08:07.867Z,27.97
2018-09-21T11:10:41.081Z,28.27
2018-09-21T11:13:12.531Z,28.32
2018-09-21T11:15:43.947Z,28.28
2018-09-21T11:18:14.100Z,28.15
2018-09-21T11:20:44.979Z,28.22
2018-09-21T11:23:16.868Z,28.23
2018-09-21T11:25:49.360Z,28.21
2018-09-21T11:28:21.645Z,28.26
2018-09-21T11:30:52.807Z,28.27
2018-09-21T11:33:25.669Z,28.25
2018-09-21T11:35:57.367Z,28.20
2018-09-21T11:38:30.101Z,28.52
2018-09-21T11:41:02.363Z,28.73
2018-09-21T11:43:33.317Z,28.98
2018-09-21T11:46:04.796Z,29.12
2018-09-21T11:48:35.252Z,28.90
2018-09-21T11:51:07.632Z,29.05
2018-09-21T11:53:39.321Z,28.99
2018-09-21T11:56:10.848Z,28.89
2018-09-21T11:58:42.865Z,28.77
2018-09-21T12:01:14.192Z,28.69
2018-09-21T12:03:44.931Z,28.84
2018-09-21T12:06:15.052Z,29.12
2018-09-21T12:08:48.155Z,29.39
2018-09-21T12:11:20.456Z,29.28
2018-09-21T12:13:52.629Z,29.00
2018-09-21T12:16:24.379Z,28.89
2018-09-21T12:18:55.510Z,28.98
2018-09-21T12:21:27.078Z,28.86
2018-09-21T12:23:58.033Z,28.66
2018-09-21T12:26:30.555Z,28.71
2018-09-21T12:29:05.220Z,28.58
2018-09-21T12:31:36.339Z,28.71
2018-09-21T12:34:07.355Z,28.49
2018-09-21T12:36:37.827Z,28.33
2018-09-21T12:39:12.249Z,28.43
2018-09-21T12:41:44.459Z,28.35
2018-09-21T12:44:17.014Z,28.64
2018-09-21T12:46:46.984Z,28.93
2018-09-21T12:49:17.516Z,29.26
2018-09-21T12:51:53.339Z,29.22
2018-09-21T12:54:27.918Z,29.16
2018-09-21T12:57:00.438Z,29.08
2018-09-21T12:59:33.185Z,29.04
2018-09-21T13:02:06.320Z,28.81
2018-09-21T13:04:37.987Z,28.40
2018-09-21T13:07:10.163Z,28.25
2018-09-21T13:09:41.513Z,28.12
2018-09-21T13:12:12.541Z,27.92
2018-09-21T13:14:43.637Z,27.80
2018-09-21T13:17:14.824Z,27.77
2018-09-21T13:19:45.542Z,27.70
2018-09-21T13:22:16.657Z,27.68
2018-09-21T13:24:47.352Z,27.80
2018-09-21T13:27:18.592Z,27.86
2018-09-21T13:29:50.559Z,27.95
2018-09-21T13:32:23.104Z,27.82
2018-09-21T13:34:55.385Z,27.90
2018-09-21T13:37:27.662Z,27.82
2018-09-21T13:39:58.821Z,27.68
2018-09-21T13:42:31.312Z,27.53
2018-09-21T13:45:01.774Z,27.29
2018-09-21T13:47:32.574Z,27.19
2018-09-21T13:50:04.133Z,27.09
2018-09-21T13:52:35.648Z,26.95
2018-09-21T13:55:08.994Z,26.76
2018-09-21T13:57:39.614Z,26.65
2018-09-21T14:00:11.888Z,26.57
2018-09-21T14:02:42.911Z,26.49
2018-09-21T14:05:15.057Z,26.41
2018-09-21T14:07:45.531Z,26.14
2018-09-21T14:10:18.455Z,26.16
2018-09-21T14:12:49.133Z,25.90
2018-09-21T14:15:19.961Z,25.75
2018-09-21T14:17:49.946Z,25.53
2018-09-21T14:20:20.265Z,25.26
2018-09-21T14:22:50.726Z,25.07
2018-09-21T14:25:20.722Z,24.84
2018-09-21T14:27:51.016Z,24.72
2018-09-21T14:30:21.636Z,24.03
2018-09-21T14:32:52.387Z,21.61
2018-09-21T14:35:22.499Z,20.13
2018-09-21T14:37:52.747Z,18.47
2018-09-21T14:40:23.910Z,17.01
2018-09-21T14:42:55.064Z,16.46
2018-09-21T14:45:27.259Z,16.20
2018-09-21T14:47:57.475Z,15.85
2018-09-21T14:50:28.403Z,15.50
2018-09-21T14:52:58.568Z,15.31
2018-09-21T14:55:30.354Z,15.16
2018-09-21T14:58:01.430Z,15.00
2018-09-21T15:00:32.166Z,14.94
2018-09-21T15:03:02.142Z,14.86
2018-09-21T15:05:33.452Z,14.93
2018-09-21T15:08:04.756Z,14.90
2018-09-21T15:10:36.078Z,14.94
2018-09-21T15:13:08.065Z,15.05
2018-09-21T15:15:38.686Z,15.17
2018-09-21T15:18:09.684Z,15.20
2018-09-21T15:20:40.034Z,15.00
2018-09-21T15:23:10.484Z,14.67
2018-09-21T15:25:40.596Z,14.72
2018-09-21T15:28:11.334Z,14.62
2018-09-21T15:30:41.327Z,14.54
2018-09-21T15:33:11.832Z,14.58
2018-09-21T15:35:42.491Z,14.65
2018-09-21T15:38:12.827Z,14.86
2018-09-21T15:40:43.973Z,15.12
2018-09-21T15:43:16.926Z,15.20
2018-09-21T15:45:48.084Z,15.25
2018-09-21T15:48:18.836Z,15.06
2018-09-21T15:50:51.998Z,14.94
2018-09-21T15:53:22.104Z,15.06
2018-09-21T15:55:53.053Z,15.11
2018-09-21T15:58:23.747Z,15.16
2018-09-21T16:00:55.711Z,15.27
2018-09-21T16:03:28.624Z,15.14
2018-09-21T16:05:59.934Z,15.13
2018-09-21T16:08:31.331Z,15.26
2018-09-21T16:11:03.100Z,15.22
2018-09-21T16:13:33.321Z,15.20
2018-09-21T16:16:05.476Z,15.16
2018-09-21T16:18:35.910Z,15.13
2018-09-21T16:21:06.218Z,15.13
2018-09-21T16:23:38.927Z,15.02
2018-09-21T16:26:09.937Z,14.88
2018-09-21T16:28:43.327Z,14.80
2018-09-21T16:31:17.933Z,14.92
2018-09-21T16:33:48.409Z,14.95
2018-09-21T16:36:19.237Z,15.13
2018-09-21T16:38:50.055Z,15.20
2018-09-21T16:41:24.351Z,15.18
2018-09-21T16:43:55.315Z,15.26
2018-09-21T16:46:25.881Z,15.41
2018-09-21T16:48:58.645Z,15.44
2018-09-21T16:51:33.760Z,15.49
2018-09-21T16:54:09.518Z,15.45
2018-09-21T16:56:41.595Z,15.39
2018-09-21T16:59:11.890Z,15.48
2018-09-21T17:03:08.218Z,15.40
2018-09-21T17:05:38.207Z,15.37
2018-09-21T17:08:08.741Z,15.48
2018-09-21T17:10:40.848Z,15.55
2018-09-21T17:13:11.478Z,15.31
2018-09-21T17:15:48.326Z,15.58
2018-09-21T17:18:20.409Z,15.51
2018-09-21T17:20:54.165Z,15.46
2018-09-21T17:23:28.248Z,15.43
2018-09-21T17:25:59.391Z,15.34
2018-09-21T17:28:30.928Z,15.38
2018-09-21T17:31:04.807Z,15.34
2018-09-21T17:33:37.558Z,15.38
2018-09-21T17:36:16.695Z,15.29
2018-09-21T17:38:56.674Z,14.92
2018-09-21T17:41:27.054Z,15.18
2018-09-21T17:43:57.562Z,15.15
2018-09-21T17:46:27.505Z,15.09
2018-09-21T17:48:58.636Z,15.09
2018-09-21T17:51:29.880Z,15.04
2018-09-21T17:54:00.999Z,15.07
2018-09-21T17:56:34.154Z,15.03
2018-09-21T17:59:09.523Z,15.02
2018-09-21T18:01:41.207Z,15.03
2018-09-21T18:04:14.948Z,14.97
2018-09-21T18:06:48.693Z,14.90
2018-09-21T18:09:22.853Z,14.86
2018-09-21T18:11:53.573Z,14.90
2018-09-21T18:14:24.468Z,14.83
2018-09-21T18:16:55.396Z,14.78
2018-09-21T18:19:29.685Z,14.81
2018-09-21T18:22:03.201Z,14.89
2018-09-21T18:24:34.309Z,14.92
2018-09-21T18:27:07.250Z,14.94
2018-09-21T18:29:40.539Z,14.90
2018-09-21T18:32:11.343Z,14.94
2018-09-21T18:34:42.234Z,14.88
2018-09-21T18:37:15.658Z,14.90
2018-09-21T18:39:48.380Z,14.93
2018-09-21T18:42:20.300Z,14.88
2018-09-21T18:44:53.758Z,14.89
2018-09-21T18:47:25.466Z,14.89
2018-09-21T18:49:57.065Z,14.94
2018-09-21T18:52:28.434Z,14.88
2018-09-21T18:54:58.852Z,14.89
2018-09-21T18:57:29.329Z,14.90
2018-09-21T18:59:59.791Z,14.90
2018-09-21T19:02:32.562Z,14.88
2018-09-21T19:05:03.597Z,14.90
2018-09-21T19:07:36.268Z,14.84
2018-09-21T19:10:08.527Z,14.80
2018-09-21T19:12:40.550Z,14.85
2018-09-21T19:15:10.864Z,14.83
2018-09-21T19:17:41.512Z,14.81
2018-09-21T19:20:12.018Z,14.78
2018-09-21T19:22:43.124Z,14.80
2018-09-21T19:25:14.372Z,14.82
2018-09-21T19:27:45.731Z,14.78
2018-09-21T19:30:20.106Z,14.76
2018-09-21T19:32:52.982Z,14.69
2018-09-21T19:35:28.123Z,14.69
2018-09-21T19:38:00.552Z,14.66
2018-09-21T19:40:30.989Z,14.60
2018-09-21T19:43:01.109Z,14.66
2018-09-21T19:45:34.474Z,14.62
2018-09-21T19:48:05.144Z,14.57
2018-09-21T19:50:35.430Z,14.55
2018-09-21T19:53:10.755Z,14.50
2018-09-21T19:55:40.850Z,14.42
2018-09-21T19:58:12.023Z,14.41
2018-09-21T20:00:43.319Z,14.40
2018-09-21T20:03:13.743Z,14.45
2018-09-21T20:05:48.297Z,14.45
2018-09-21T20:08:19.361Z,14.49
2018-09-21T20:10:53.390Z,14.44
2018-09-21T20:13:24.653Z,14.44
2018-09-21T20:15:55.445Z,14.52
2018-09-21T20:18:27.984Z,14.50
2018-09-21T20:20:58.409Z,14.47
2018-09-21T20:23:30.377Z,14.46
2018-09-21T20:26:00.830Z,14.42
2018-09-21T20:28:31.439Z,14.49
2018-09-21T20:31:09.265Z,14.48
2018-09-21T20:33:39.485Z,14.42
2018-09-21T20:36:10.092Z,14.29
2018-09-21T20:38:40.468Z,14.51
2018-09-21T20:41:18.229Z,14.59
2018-09-21T20:43:59.469Z,14.70
2018-09-21T20:46:29.929Z,14.72
2018-09-21T20:49:03.250Z,14.68
2018-09-21T20:51:33.784Z,14.70
2018-09-21T20:54:07.319Z,14.54
2018-09-21T20:56:37.404Z,14.51
2018-09-21T20:59:12.555Z,14.54
2018-09-21T21:01:43.927Z,14.44
2018-09-21T21:04:16.601Z,14.44
2018-09-21T21:06:47.888Z,14.50
2018-09-21T21:09:19.121Z,14.50
2018-09-21T21:11:54.002Z,14.47
2018-09-21T21:14:24.923Z,14.40
2018-09-21T21:16:56.106Z,14.36
2018-09-21T21:19:27.082Z,14.31
2018-09-21T21:21:58.580Z,14.34
2018-09-21T21:24:29.963Z,14.21
2018-09-21T21:27:01.731Z,14.01
2018-09-21T21:29:32.355Z,14.04
2018-09-21T21:32:02.681Z,14.00
2018-09-21T21:34:33.293Z,13.96
2018-09-21T21:37:04.185Z,13.95
2018-09-21T21:39:35.028Z,14.01
2018-09-21T21:42:06.691Z,13.90
2018-09-21T21:44:37.486Z,13.84
2018-09-21T21:47:07.643Z,13.93
2018-09-21T21:49:40.651Z,13.94
2018-09-21T21:52:11.146Z,13.86
2018-09-21T21:54:41.335Z,13.81
2018-09-21T21:57:12.606Z,13.85
2018-09-21T21:59:42.862Z,13.76
2018-09-21T22:02:14.684Z,13.78
2018-09-21T22:04:46.421Z,13.74
2018-09-21T22:07:17.494Z,13.73
2018-09-21T22:09:47.793Z,13.76
2018-09-21T22:12:24.876Z,13.71
2018-09-21T22:14:55.911Z,13.63
2018-09-21T22:17:28.544Z,13.61
2018-09-21T22:19:59.157Z,13.56
2018-09-21T22:22:29.871Z,13.57
2018-09-21T22:25:02.604Z,13.55
2018-09-21T22:27:32.841Z,13.55
2018-09-21T22:30:04.512Z,13.49
2018-09-21T22:32:37.708Z,13.51
2018-09-21T22:35:08.720Z,13.55
2018-09-21T22:37:39.746Z,13.42
2018-09-21T22:40:11.964Z,13.43
2018-09-21T22:42:43.616Z,13.42
2018-09-21T22:45:13.757Z,13.36
2018-09-21T22:47:44.309Z,13.37
2018-09-21T22:50:14.266Z,13.34
2018-09-21T22:52:44.474Z,13.17
2018-09-21T22:55:14.861Z,13.29
2018-09-21T22:57:44.882Z,13.25
2018-09-21T23:00:16.912Z,13.17
2018-09-21T23:02:46.836Z,13.20
2018-09-21T23:05:17.025Z,13.19
2018-09-21T23:07:47.605Z,13.15
2018-09-21T23:10:18.306Z,13.17
2018-09-21T23:12:48.718Z,13.13
2018-09-21T23:15:20.773Z,13.21
2018-09-21T23:17:51.958Z,13.22
2018-09-21T23:20:22.024Z,13.25
2018-09-21T23:22:52.868Z,13.29
2018-09-21T23:25:23.121Z,13.21
2018-09-21T23:27:54.346Z,13.19
2018-09-21T23:30:24.586Z,13.19
2018-09-21T23:32:54.932Z,13.25
2018-09-21T23:35:25.753Z,13.25
2018-09-21T23:37:56.483Z,13.05
2018-09-21T23:40:26.281Z,13.34
2018-09-21T23:42:56.996Z,13.27
2018-09-21T23:45:28.435Z,13.19
2018-09-21T23:47:58.766Z,13.26
2018-09-21T23:50:29.318Z,13.31
2018-09-21T23:52:59.428Z,13.39
2018-09-21T23:55:30.653Z,13.34
2018-09-21T23:58:01.444Z,13.33
